createdAt,value
2022-08-21T00:00:28.972Z,95899.47
2022-08-21T00:03:02.414Z,95894.78
2022-08-21T00:05:31.920Z,95900.09
2022-08-21T00:07:59.404Z,95892.94
2022-08-21T00:10:27.095Z,95893.81
2022-08-21T00:12:54.990Z,95892.22
2022-08-21T00:15:27.612Z,95893.00
2022-08-21T00:17:56.026Z,95890.66
2022-08-21T00:20:24.383Z,95888.50
2022-08-21T00:22:51.636Z,95882.22
2022-08-21T00:25:24.293Z,95880.66
2022-08-21T00:27:54.006Z,95880.44
2022-08-21T00:30:23.573Z,95877.13
2022-08-21T00:32:52.301Z,95872.50
2022-08-21T00:35:23.303Z,95876.97
2022-08-21T00:37:50.585Z,95874.31
2022-08-21T00:40:21.029Z,95884.59
2022-08-21T00:42:59.180Z,95885.19
2022-08-21T00:45:29.064Z,95877.25
2022-08-21T00:47:56.356Z,95871.66
2022-08-21T00:50:26.924Z,95869.28
2022-08-21T00:52:54.163Z,95870.25
2022-08-21T00:55:23.669Z,95870.06
2022-08-21T00:57:56.364Z,95874.75
2022-08-21T01:00:29.605Z,95865.72
2022-08-21T01:02:59.110Z,95867.00
2022-08-21T01:05:26.667Z,95864.94
2022-08-21T01:07:54.700Z,95860.13
2022-08-21T01:10:23.959Z,95851.75
2022-08-21T01:12:57.071Z,95853.13
2022-08-21T01:15:33.124Z,95853.13
2022-08-21T01:18:00.345Z,95856.69
2022-08-21T01:20:32.470Z,95846.28
2022-08-21T01:23:04.744Z,95847.84
2022-08-21T01:25:33.284Z,95848.31
2022-08-21T01:28:08.033Z,95844.00
2022-08-21T01:30:37.584Z,95841.16
2022-08-21T01:33:05.305Z,95839.03
2022-08-21T01:35:32.505Z,95843.72
2022-08-21T01:37:59.604Z,95838.63
2022-08-21T01:40:26.846Z,95838.22
2022-08-21T01:42:54.659Z,95839.41
2022-08-21T01:45:21.865Z,95835.19
2022-08-21T01:47:49.264Z,95836.84
2022-08-21T01:50:18.689Z,95838.00
2022-08-21T01:52:45.725Z,95838.78
2022-08-21T01:55:18.144Z,95846.59
2022-08-21T01:57:46.444Z,95826.59
2022-08-21T02:00:14.645Z,95817.34
2022-08-21T02:02:42.565Z,95815.28
2022-08-21T02:05:11.946Z,95812.63
2022-08-21T02:07:44.764Z,95815.28
2022-08-21T02:10:14.425Z,95807.44
2022-08-21T02:12:41.545Z,95799.84
2022-08-21T02:15:10.425Z,95801.50
2022-08-21T02:17:47.226Z,95794.06
2022-08-21T02:20:20.405Z,95793.88
2022-08-21T02:22:47.752Z,95795.31
2022-08-21T02:25:15.366Z,95795.50
2022-08-21T02:27:44.705Z,95791.44
2022-08-21T02:30:14.786Z,95793.94
2022-08-21T02:32:42.245Z,95800.03
2022-08-21T02:35:11.305Z,95794.78
2022-08-21T02:37:54.804Z,95789.38
2022-08-21T02:40:26.005Z,95785.09
2022-08-21T02:42:53.620Z,95794.78
2022-08-21T02:45:21.566Z,95786.56
2022-08-21T02:47:54.105Z,95795.44
2022-08-21T02:50:25.186Z,95784.22
2022-08-21T02:52:55.334Z,95787.97
2022-08-21T02:55:27.925Z,95773.16
2022-08-21T02:57:56.627Z,95777.88
2022-08-21T03:00:25.206Z,95785.69
2022-08-21T03:02:52.584Z,95788.00
2022-08-21T03:05:20.125Z,95779.78
2022-08-21T03:07:48.393Z,95783.38
2022-08-21T03:10:16.314Z,95780.41
2022-08-21T03:12:43.593Z,95776.69
2022-08-21T03:15:16.225Z,95792.31
2022-08-21T03:17:43.365Z,95802.56
2022-08-21T03:20:11.004Z,95794.44
2022-08-21T03:22:38.105Z,95801.59
2022-08-21T03:25:06.734Z,95795.75
2022-08-21T03:27:35.265Z,95795.09
2022-08-21T03:30:04.745Z,95802.91
2022-08-21T03:32:32.724Z,95808.72
2022-08-21T03:35:01.434Z,95804.47
2022-08-21T03:37:29.004Z,95806.25
2022-08-21T03:39:56.234Z,95812.19
2022-08-21T03:42:23.985Z,95805.41
2022-08-21T03:44:51.665Z,95809.75
2022-08-21T03:47:19.247Z,95807.81
2022-08-21T03:49:46.345Z,95806.25
2022-08-21T03:52:13.446Z,95803.22
2022-08-21T03:54:42.564Z,95807.75
2022-08-21T03:57:11.766Z,95794.41
2022-08-21T03:59:40.425Z,95794.03
2022-08-21T04:02:08.453Z,95800.41
2022-08-21T04:04:36.067Z,95802.78
2022-08-21T04:07:04.113Z,95801.94
2022-08-21T04:09:31.507Z,95794.00
2022-08-21T04:12:00.165Z,95803.34
2022-08-21T04:14:27.673Z,95802.06
2022-08-21T04:16:54.804Z,95800.47
2022-08-21T04:19:21.965Z,95802.72
2022-08-21T04:21:50.353Z,95810.41
2022-08-21T04:24:20.484Z,95799.41
2022-08-21T04:26:48.025Z,95806.28
2022-08-21T04:29:15.145Z,95814.13
2022-08-21T04:31:42.245Z,95817.34
2022-08-21T04:34:09.564Z,95809.00
2022-08-21T04:36:36.745Z,95808.44
2022-08-21T04:39:03.978Z,95820.78
2022-08-21T04:41:31.984Z,95812.56
2022-08-21T04:43:59.146Z,95823.25
2022-08-21T04:46:26.412Z,95830.25
2022-08-21T04:48:53.506Z,95835.03
2022-08-21T04:51:36.592Z,95837.78
2022-08-21T04:54:15.844Z,95836.28
2022-08-21T04:56:51.045Z,95834.09
2022-08-21T04:59:28.066Z,95843.03
2022-08-21T05:01:58.290Z,95851.09
2022-08-21T05:04:31.327Z,95845.09
2022-08-21T05:07:02.506Z,95846.03
2022-08-21T05:09:29.946Z,95838.16
2022-08-21T05:11:57.351Z,95853.75
2022-08-21T05:14:24.488Z,95851.34
2022-08-21T05:16:51.804Z,95850.41
2022-08-21T05:19:19.044Z,95852.25
2022-08-21T05:21:48.685Z,95859.94
2022-08-21T05:24:17.214Z,95860.69
2022-08-21T05:26:46.338Z,95867.38
2022-08-21T05:29:16.872Z,95860.25
2022-08-21T05:31:46.535Z,95860.91
2022-08-21T05:34:16.079Z,95866.91
2022-08-21T05:36:43.603Z,95873.75
2022-08-21T05:39:11.006Z,95881.91
2022-08-21T05:41:38.204Z,95876.97
2022-08-21T05:44:10.548Z,95876.63
2022-08-21T05:46:39.181Z,95897.13
2022-08-21T05:49:06.612Z,95885.28
2022-08-21T05:51:33.850Z,95891.59
2022-08-21T05:54:01.124Z,95893.56
2022-08-21T05:56:28.484Z,95902.69
2022-08-21T05:58:55.845Z,95900.13
2022-08-21T06:01:23.587Z,95906.53
2022-08-21T06:03:51.087Z,95900.53
2022-08-21T06:06:18.772Z,95900.59
2022-08-21T06:08:46.644Z,95905.47
2022-08-21T06:11:13.804Z,95895.13
2022-08-21T06:13:42.124Z,95903.00
2022-08-21T06:16:15.684Z,95902.63
2022-08-21T06:18:45.134Z,95903.78
2022-08-21T06:21:14.168Z,95915.78
2022-08-21T06:23:41.603Z,95923.38
2022-08-21T06:26:09.773Z,95917.78
2022-08-21T06:28:38.125Z,95913.91
2022-08-21T06:31:19.243Z,95919.59
2022-08-21T06:33:47.404Z,95921.50
2022-08-21T06:36:14.898Z,95918.69
2022-08-21T06:38:42.363Z,95916.84
2022-08-21T06:41:18.203Z,95925.66
2022-08-21T06:43:51.924Z,95916.44
2022-08-21T06:46:19.131Z,95922.84
2022-08-21T06:48:46.486Z,95916.28
2022-08-21T06:51:13.893Z,95906.75
2022-08-21T06:53:40.993Z,95905.34
2022-08-21T06:56:08.414Z,95906.13
2022-08-21T06:58:35.731Z,95910.66
2022-08-21T07:01:03.525Z,95909.41
2022-08-21T07:03:36.933Z,95906.56
2022-08-21T07:06:05.526Z,95908.94
2022-08-21T07:08:32.851Z,95906.28
2022-08-21T07:11:02.926Z,95897.50
2022-08-21T07:13:31.045Z,95910.03
2022-08-21T07:16:03.149Z,95909.69
2022-08-21T07:18:31.284Z,95909.78
2022-08-21T07:20:58.773Z,95913.97
2022-08-21T07:23:31.684Z,95918.94
2022-08-21T07:26:00.608Z,95922.00
2022-08-21T07:28:28.563Z,95924.19
2022-08-21T07:30:58.648Z,95928.25
2022-08-21T07:33:27.770Z,95934.34
2022-08-21T07:35:56.045Z,95922.91
2022-08-21T07:38:23.686Z,95935.91
2022-08-21T07:40:53.806Z,95935.06
2022-08-21T07:43:22.806Z,95929.22
2022-08-21T07:45:55.212Z,95927.13
2022-08-21T07:48:23.326Z,95923.13
2022-08-21T07:50:50.729Z,95920.00
2022-08-21T07:53:17.972Z,95915.59
2022-08-21T07:55:45.733Z,95918.72
2022-08-21T07:58:13.092Z,95921.50
2022-08-21T08:00:41.325Z,95925.22
2022-08-21T08:03:08.646Z,95920.13
2022-08-21T08:05:41.088Z,95925.94
2022-08-21T08:08:08.930Z,95924.94
2022-08-21T08:10:37.324Z,95914.25
2022-08-21T08:13:04.646Z,95917.91
2022-08-21T08:15:36.932Z,95910.34
2022-08-21T08:18:05.127Z,95914.31
2022-08-21T08:20:32.447Z,95921.06
2022-08-21T08:22:59.702Z,95919.47
2022-08-21T08:25:27.927Z,95917.19
2022-08-21T08:28:04.476Z,95918.44
2022-08-21T08:30:44.069Z,95919.41
2022-08-21T08:33:11.204Z,95920.50
2022-08-21T08:35:38.997Z,95924.06
2022-08-21T08:38:06.765Z,95930.16
2022-08-21T08:40:53.174Z,95935.72
2022-08-21T08:43:20.763Z,95934.34
2022-08-21T08:45:52.258Z,95923.66
2022-08-21T08:48:37.843Z,95923.41
2022-08-21T08:51:10.489Z,95923.47
2022-08-21T08:53:50.803Z,95930.00
2022-08-21T08:56:22.253Z,95931.88
2022-08-21T08:58:51.491Z,95925.50
2022-08-21T09:01:21.337Z,95928.00
2022-08-21T09:03:51.323Z,95923.66
2022-08-21T09:06:38.364Z,95924.28
2022-08-21T09:09:26.723Z,95922.41
2022-08-21T09:12:03.177Z,95927.31
2022-08-21T09:15:01.371Z,95922.09
2022-08-21T09:18:17.133Z,95926.59
2022-08-21T09:21:03.278Z,95921.06
2022-08-21T09:23:36.528Z,95920.44
2022-08-21T09:26:18.970Z,95919.25
2022-08-21T09:28:48.845Z,95906.22
2022-08-21T09:31:27.939Z,95901.88
2022-08-21T09:34:06.084Z,95888.34
2022-08-21T09:36:52.133Z,95889.41
2022-08-21T09:39:29.925Z,95893.09
2022-08-21T09:42:05.331Z,95887.81
2022-08-21T09:44:40.529Z,95878.34
2022-08-21T09:47:09.848Z,95882.25
2022-08-21T09:49:40.046Z,95878.53
2022-08-21T09:52:26.765Z,95879.50
2022-08-21T09:54:56.844Z,95875.63
2022-08-21T09:57:50.253Z,95875.50
2022-08-21T10:00:27.365Z,95872.34
2022-08-21T10:02:55.127Z,95874.00
2022-08-21T10:05:27.093Z,95886.50
2022-08-21T10:07:54.243Z,95889.81
2022-08-21T10:10:29.983Z,95884.59
2022-08-21T10:13:23.378Z,95890.59
2022-08-21T10:16:19.003Z,95885.38
2022-08-21T10:19:02.884Z,95885.94
2022-08-21T10:21:50.332Z,95895.28
2022-08-21T10:24:30.558Z,95886.47
2022-08-21T10:27:04.363Z,95888.16
2022-08-21T10:30:07.244Z,95882.69
2022-08-21T10:33:02.043Z,95885.16
2022-08-21T10:35:38.284Z,95885.56
2022-08-21T10:38:52.643Z,95878.66
2022-08-21T10:41:28.342Z,95878.56
2022-08-21T10:44:29.643Z,95876.75
2022-08-21T10:47:23.812Z,95877.09
2022-08-21T10:50:13.580Z,95871.94
2022-08-21T10:53:06.803Z,95871.09
2022-08-21T10:55:40.819Z,95871.53
2022-08-21T10:58:32.786Z,95871.66
2022-08-21T11:13:40.971Z,95872.84
2022-08-21T11:16:43.603Z,95871.34
2022-08-21T11:19:15.285Z,95874.41
2022-08-21T11:21:53.523Z,95863.25
2022-08-21T11:24:23.811Z,95864.38
2022-08-21T11:27:05.857Z,95869.28
2022-08-21T11:29:40.964Z,95858.38
2022-08-21T11:32:29.450Z,95866.31
2022-08-21T11:35:33.189Z,95861.41
2022-08-21T11:38:14.808Z,95860.69
2022-08-21T11:40:59.404Z,95859.91
2022-08-21T11:43:47.004Z,95862.00
2022-08-21T11:46:38.283Z,95860.28
2022-08-21T11:49:25.725Z,95859.34
2022-08-21T11:52:11.323Z,95858.97
2022-08-21T11:55:01.243Z,95848.84
2022-08-21T11:57:41.163Z,95856.75
2022-08-21T12:00:28.003Z,95852.22
2022-08-21T12:03:00.277Z,95850.97
2022-08-21T12:05:41.419Z,95843.59
2022-08-21T12:08:15.082Z,95846.00
2022-08-21T12:11:02.643Z,95845.97
2022-08-21T12:13:40.667Z,95846.88
2022-08-21T12:16:32.964Z,95844.34
2022-08-21T12:19:13.603Z,95842.09
2022-08-21T12:22:15.486Z,95848.91
2022-08-21T12:24:50.689Z,95850.16
2022-08-21T12:27:53.011Z,95836.81
2022-08-21T12:30:41.763Z,95843.22
2022-08-21T12:33:36.611Z,95848.00
2022-08-21T12:36:12.882Z,95844.56
2022-08-21T12:38:54.283Z,95845.69
2022-08-21T12:41:45.371Z,95844.00
2022-08-21T12:44:18.203Z,95842.63
2022-08-21T12:46:55.962Z,95838.97
2022-08-21T12:49:33.419Z,95853.44
2022-08-21T12:52:21.488Z,95848.91
2022-08-21T12:54:48.733Z,95851.47
2022-08-21T12:57:26.379Z,95841.63
2022-08-21T13:00:01.685Z,95850.50
2022-08-21T13:02:36.367Z,95843.88
2022-08-21T13:05:06.646Z,95845.09
2022-08-21T13:07:37.171Z,95847.22
2022-08-21T13:10:22.163Z,95847.75
2022-08-21T13:12:50.483Z,95851.66
2022-08-21T13:15:26.444Z,95850.19
2022-08-21T13:18:03.632Z,95853.66
2022-08-21T13:20:37.483Z,95844.50
2022-08-21T13:23:20.363Z,95853.31
2022-08-21T13:25:47.564Z,95850.97
2022-08-21T13:28:16.126Z,95843.19
2022-08-21T13:30:54.404Z,95843.19
2022-08-21T13:33:25.452Z,95857.69
2022-08-21T13:36:18.044Z,95846.22
2022-08-21T13:38:46.651Z,95853.16
2022-08-21T13:41:32.244Z,95858.69
2022-08-21T13:44:28.685Z,95861.63
2022-08-21T13:46:56.164Z,95862.16
2022-08-21T13:49:30.526Z,95869.50
2022-08-21T13:51:58.285Z,95860.56
2022-08-21T13:54:38.326Z,95862.78
2022-08-21T13:57:16.687Z,95862.16
2022-08-21T13:59:43.856Z,95867.50
2022-08-21T14:02:25.043Z,95867.63
2022-08-21T14:04:53.407Z,95859.56
2022-08-21T14:07:41.610Z,95859.38
2022-08-21T14:10:16.651Z,95855.78
2022-08-21T14:13:08.046Z,95863.88
2022-08-21T14:15:36.722Z,95849.78
2022-08-21T14:18:15.885Z,95852.88
2022-08-21T14:20:43.646Z,95867.75
2022-08-21T14:23:11.084Z,95850.44
2022-08-21T14:25:43.957Z,95857.25
2022-08-21T14:28:28.833Z,95857.72
2022-08-21T14:30:58.164Z,95851.47
2022-08-21T14:33:33.326Z,95859.91
2022-08-21T14:36:02.243Z,95852.22
2022-08-21T14:38:30.137Z,95846.31
2022-08-21T14:41:05.164Z,95859.22
2022-08-21T14:43:33.083Z,95856.13
2022-08-21T14:46:02.043Z,95852.31
2022-08-21T14:48:29.323Z,95845.38
2022-08-21T14:51:00.406Z,95846.81
2022-08-21T14:53:28.164Z,95844.84
2022-08-21T14:56:11.243Z,95833.22
2022-08-21T14:58:44.124Z,95845.41
2022-08-21T15:01:14.645Z,95841.38
2022-08-21T15:03:42.060Z,95844.59
2022-08-21T15:06:10.491Z,95839.50
2022-08-21T15:08:37.845Z,95848.94
2022-08-21T15:11:18.551Z,95857.53
2022-08-21T15:13:48.043Z,95852.00
2022-08-21T15:16:15.246Z,95841.84
2022-08-21T15:18:43.221Z,95849.00
2022-08-21T15:21:11.163Z,95847.19
2022-08-21T15:23:43.564Z,95843.41
2022-08-21T15:26:11.604Z,95845.63
2022-08-21T15:28:39.484Z,95835.81
2022-08-21T15:31:07.252Z,95840.50
2022-08-21T15:33:34.563Z,95833.22
2022-08-21T15:36:01.971Z,95842.91
2022-08-21T15:38:29.324Z,95825.00
2022-08-21T15:40:56.691Z,95833.44
2022-08-21T15:43:30.740Z,95835.34
2022-08-21T15:46:01.028Z,95829.63
2022-08-21T15:48:28.644Z,95841.47
2022-08-21T15:50:55.973Z,95837.56
2022-08-21T15:53:23.484Z,95838.69
2022-08-21T15:55:50.764Z,95832.28
2022-08-21T15:58:18.442Z,95828.84
2022-08-21T16:00:47.972Z,95826.59
2022-08-21T16:03:19.243Z,95838.09
2022-08-21T16:05:49.771Z,95838.38
2022-08-21T16:08:17.126Z,95828.63
2022-08-21T16:10:44.443Z,95842.19
2022-08-21T16:13:26.932Z,95831.28
2022-08-21T16:15:55.251Z,95851.13
2022-08-21T16:18:24.403Z,95843.13
2022-08-21T16:20:51.722Z,95836.53
2022-08-21T16:23:19.724Z,95837.88
2022-08-21T16:25:47.283Z,95838.06
2022-08-21T16:28:17.005Z,95842.38
2022-08-21T16:30:46.132Z,95837.78
2022-08-21T16:33:22.645Z,95836.06
2022-08-21T16:35:49.883Z,95844.28
2022-08-21T16:38:17.242Z,95840.25
2022-08-21T16:40:44.683Z,95844.81
2022-08-21T16:43:11.923Z,95837.13
2022-08-21T16:45:40.163Z,95844.69
2022-08-21T16:48:10.003Z,95841.09
2022-08-21T16:50:38.212Z,95839.84
2022-08-21T16:53:06.932Z,95838.84
2022-08-21T16:55:38.845Z,95837.91
2022-08-21T16:58:11.723Z,95844.97
2022-08-21T17:00:39.010Z,95847.66
2022-08-21T17:03:07.133Z,95844.66
2022-08-21T17:05:34.372Z,95833.56
2022-08-21T17:08:01.696Z,95843.66
2022-08-21T17:10:28.894Z,95839.25
2022-08-21T17:12:58.869Z,95844.72
2022-08-21T17:15:30.203Z,95848.03
2022-08-21T17:17:57.442Z,95836.97
2022-08-21T17:20:26.385Z,95844.88
2022-08-21T17:22:54.171Z,95840.31
2022-08-21T17:25:21.531Z,95842.38
2022-08-21T17:27:49.970Z,95846.84
2022-08-21T17:30:18.083Z,95848.47
2022-08-21T17:32:46.483Z,95849.13
2022-08-21T17:35:14.744Z,95854.63
2022-08-21T17:37:42.243Z,95855.09
2022-08-21T17:40:14.635Z,95862.22
2022-08-21T17:42:43.883Z,95854.25
2022-08-21T17:45:14.619Z,95857.47
2022-08-21T17:47:42.091Z,95855.19
2022-08-21T17:50:11.571Z,95860.31
2022-08-21T17:52:39.611Z,95864.38
2022-08-21T17:55:07.085Z,95868.34
2022-08-21T17:57:36.283Z,95860.88
2022-08-21T18:00:08.524Z,95861.44
2022-08-21T18:02:40.574Z,95867.88
2022-08-21T18:05:09.933Z,95862.53
2022-08-21T18:07:37.178Z,95863.31
2022-08-21T18:10:07.764Z,95873.06
2022-08-21T18:12:35.571Z,95862.22
2022-08-21T18:15:04.683Z,95865.19
2022-08-21T18:17:34.083Z,95872.41
2022-08-21T18:20:02.295Z,95864.16
2022-08-21T18:22:29.611Z,95877.03
2022-08-21T18:24:56.962Z,95866.00
2022-08-21T18:27:29.082Z,95873.38
2022-08-21T18:30:00.610Z,95868.38
2022-08-21T18:32:30.947Z,95872.78
2022-08-21T18:35:02.484Z,95865.47
2022-08-21T18:37:31.043Z,95869.25
2022-08-21T18:39:59.477Z,95871.16
2022-08-21T18:42:28.643Z,95863.47
2022-08-21T18:45:01.931Z,95873.03
2022-08-21T18:47:37.452Z,95871.00
2022-08-21T18:50:10.198Z,95876.19
2022-08-21T18:52:41.822Z,95876.31
2022-08-21T18:55:20.925Z,95877.25
2022-08-21T18:57:48.172Z,95881.44
2022-08-21T19:00:19.403Z,95874.78
2022-08-21T19:02:46.923Z,95869.41
2022-08-21T19:05:17.472Z,95863.31
2022-08-21T19:07:45.323Z,95863.81
2022-08-21T19:10:27.891Z,95862.72
2022-08-21T19:13:01.369Z,95869.75
2022-08-21T19:15:29.814Z,95871.63
2022-08-21T19:17:58.767Z,95872.88
2022-08-21T19:20:35.026Z,95870.69
2022-08-21T19:23:04.343Z,95861.28
2022-08-21T19:25:34.369Z,95867.88
2022-08-21T19:28:11.493Z,95862.09
2022-08-21T19:30:41.412Z,95870.66
2022-08-21T19:33:10.443Z,95867.72
2022-08-21T19:35:37.726Z,95870.97
2022-08-21T19:38:05.078Z,95871.19
2022-08-21T19:40:32.401Z,95860.50
2022-08-21T19:43:00.399Z,95858.47
2022-08-21T19:45:28.714Z,95865.97
2022-08-21T19:47:56.691Z,95864.56
2022-08-21T19:50:26.324Z,95863.94
2022-08-21T19:52:53.494Z,95864.09
2022-08-21T19:55:23.309Z,95854.56
2022-08-21T19:57:52.011Z,95851.72
2022-08-21T20:00:19.211Z,95855.50
2022-08-21T20:02:47.836Z,95857.84
2022-08-21T20:05:18.260Z,95853.59
2022-08-21T20:07:46.211Z,95850.78
2022-08-21T20:10:13.539Z,95838.25
2022-08-21T20:12:42.084Z,95838.09
2022-08-21T20:15:09.725Z,95839.00
2022-08-21T20:17:39.046Z,95836.94
2022-08-21T20:20:08.132Z,95834.44
2022-08-21T20:22:35.487Z,95834.75
2022-08-21T20:25:03.047Z,95835.06
2022-08-21T20:27:30.445Z,95837.88
2022-08-21T20:30:02.209Z,95834.59
2022-08-21T20:32:29.404Z,95832.25
2022-08-21T20:34:59.644Z,95837.41
2022-08-21T20:37:36.181Z,95826.16
2022-08-21T20:40:12.184Z,95825.38
2022-08-21T20:42:47.687Z,95827.25
2022-08-21T20:45:25.326Z,95825.53
2022-08-21T20:48:03.043Z,95835.59
2022-08-21T20:50:37.032Z,95829.31
2022-08-21T20:53:14.323Z,95828.09
2022-08-21T20:55:49.124Z,95832.16
2022-08-21T20:58:21.324Z,95816.59
2022-08-21T21:00:49.925Z,95820.84
2022-08-21T21:03:32.887Z,95816.47
2022-08-21T21:06:04.851Z,95818.47
2022-08-21T21:08:38.165Z,95815.09
2022-08-21T21:11:38.723Z,95814.31
2022-08-21T21:14:11.804Z,95821.06
2022-08-21T21:16:45.885Z,95816.22
2022-08-21T21:19:37.058Z,95815.69
2022-08-21T21:22:11.297Z,95807.94
2022-08-21T21:24:51.771Z,95811.47
2022-08-21T21:30:36.725Z,95811.31
2022-08-21T21:33:04.803Z,95808.16
2022-08-21T21:35:41.272Z,95804.44
2022-08-21T21:38:23.365Z,95790.94
2022-08-21T21:40:53.445Z,95799.75
2022-08-21T21:43:40.445Z,95801.00
2022-08-21T21:46:22.644Z,95789.56
2022-08-21T21:49:14.211Z,95799.75
2022-08-21T21:52:13.652Z,95791.47
2022-08-21T21:54:53.005Z,95789.06
2022-08-21T21:57:38.614Z,95790.44
2022-08-21T22:00:19.609Z,95787.00
2022-08-21T22:03:05.303Z,95790.31
2022-08-21T22:05:57.845Z,95798.13
2022-08-21T22:08:31.124Z,95790.91
2022-08-21T22:11:28.657Z,95796.56
2022-08-21T22:14:21.562Z,95800.16
2022-08-21T22:16:51.643Z,95793.78
2022-08-21T22:19:25.204Z,95800.97
2022-08-21T22:22:09.484Z,95789.66
2022-08-21T22:24:43.084Z,95792.97
2022-08-21T22:27:18.443Z,95787.66
2022-08-21T22:29:53.084Z,95786.38
2022-08-21T22:35:33.328Z,95776.34
2022-08-21T22:38:01.850Z,95777.13
2022-08-21T22:40:34.908Z,95777.91
2022-08-21T22:43:21.284Z,95778.84
2022-08-21T22:46:00.966Z,95779.47
2022-08-21T22:48:32.692Z,95765.38
2022-08-21T22:51:22.724Z,95773.69
2022-08-21T22:53:57.729Z,95769.00
2022-08-21T22:56:39.164Z,95771.50
2022-08-21T22:59:26.884Z,95758.03
2022-08-21T23:02:09.306Z,95759.91
2022-08-21T23:04:48.821Z,95749.56
2022-08-21T23:07:35.349Z,95759.91
2022-08-21T23:10:20.981Z,95753.44
2022-08-21T23:12:51.216Z,95745.94
2022-08-21T23:15:21.737Z,95755.97
2022-08-21T23:17:54.027Z,95743.75
2022-08-21T23:20:45.427Z,95732.53
2022-08-21T23:23:27.017Z,95741.88
2022-08-21T23:26:18.347Z,95738.59
2022-08-21T23:29:10.882Z,95739.09
2022-08-21T23:32:03.498Z,95733.09
2022-08-21T23:34:53.185Z,95731.50
2022-08-21T23:37:58.837Z,95728.84
2022-08-21T23:40:51.265Z,95724.03
2022-08-21T23:44:17.040Z,95723.25
2022-08-21T23:46:57.078Z,95729.66
2022-08-21T23:49:32.998Z,95730.63
2022-08-21T23:52:15.299Z,95723.22
2022-08-21T23:54:58.737Z,95729.03
2022-08-21T23:57:45.858Z,95731.38
